Terminal Aerodrome Forecast
Issued by NWS

Home | Current Version | Previous Version | Text Only | Print | Product List | Glossary On
Versions: 1 2 3 4 5 6 7 8 9 10 11 12 13 14 15 16 17 18 19 20 21 22 23 24 25 26 27 28 29 30
000
FTUS43 KGLD 230533
TAFMCK
TAF
KMCK 230533Z 2306/2406 14009KT P6SM BKN250 WS020/17045KT
     FM230900 16008KT P6SM BKN250 WS020/20045KT
     FM231100 16007KT P6SM SCT250 WS020/20035KT
     FM231200 16006KT P6SM SCT250
     FM231500 17011G19KT P6SM SCT250
     FM232100 16019G27KT P6SM SCT200=

USA.gov is the U.S. government's official web portal to all federal, state and local government web resources and services.